Erda, Utah
Current Conditions -  °F | °C
As of 1:53 PM on Saturday 25 Oct 2014 (Local Time) from KSLC Reporting Station
Scattered Clouds Scattered Clouds  
Wind Chill: 76°   Ceiling: Unl
Heat Index: 76°   Visibility: 10mi
Dew Point: 31°   Wind: 25mph
Humidity: 19%   Direction: 150°SSE
Pressure: 29.99"   Gusts: 33mph
Location:  40.5393°N, 112.353°W
Report Text: KSLC 251953Z 15022G29KT 10SM SCT250 24/M01 A2999 RMK AO2 PK WND 16029/1944 SLP109 T02441006
Loading
Personal Weather Stations






























Interactive Weather Map
Tropical Storm Tracking
New forecast layout! Learn more

10-Day Weather Forecast

Advertisements
Track Severe Weather on mobile